sensor_id;sensor_type;location;lat;lon;timestamp;pressure;altitude;pressure_sealevel;temperature;humidity
20119;BME280;10220;42.716;23.306;2023-02-02T00:01:14;95353.03;;;4.30;98.19
20119;BME280;10220;42.716;23.306;2023-02-02T00:03:40;95362.47;;;4.46;95.97
20119;BME280;10220;42.716;23.306;2023-02-02T00:06:06;95374.00;;;4.50;95.08
20119;BME280;10220;42.716;23.306;2023-02-02T00:08:31;95398.84;;;4.65;95.34
20119;BME280;10220;42.716;23.306;2023-02-02T00:10:58;95317.16;;;4.30;95.48
20119;BME280;10220;42.716;23.306;2023-02-02T00:13:23;95385.84;;;4.74;93.63
20119;BME280;10220;42.716;23.306;2023-02-02T00:15:48;95326.75;;;4.52;92.89
20119;BME280;10220;42.716;23.306;2023-02-02T00:18:14;95378.13;;;4.82;90.66
20119;BME280;10220;42.716;23.306;2023-02-02T00:20:39;95395.63;;;4.95;89.94
20119;BME280;10220;42.716;23.306;2023-02-02T00:23:05;95394.34;;;4.91;91.88
20119;BME280;10220;42.716;23.306;2023-02-02T00:25:31;95375.69;;;4.97;93.00
20119;BME280;10220;42.716;23.306;2023-02-02T00:27:56;95396.75;;;4.92;91.90
20119;BME280;10220;42.716;23.306;2023-02-02T00:30:22;95375.72;;;4.89;90.46
20119;BME280;10220;42.716;23.306;2023-02-02T00:32:47;95314.22;;;4.57;88.54
20119;BME280;10220;42.716;23.306;2023-02-02T00:35:15;95350.75;;;4.67;88.09
20119;BME280;10220;42.716;23.306;2023-02-02T00:37:40;95405.06;;;4.94;89.07
20119;BME280;10220;42.716;23.306;2023-02-02T00:40:06;95341.28;;;4.60;88.82
20119;BME280;10220;42.716;23.306;2023-02-02T00:42:32;95398.31;;;5.09;89.72
20119;BME280;10220;42.716;23.306;2023-02-02T00:44:58;95405.19;;;5.09;91.64
20119;BME280;10220;42.716;23.306;2023-02-02T00:47:44;95394.00;;;4.94;93.13
20119;BME280;10220;42.716;23.306;2023-02-02T00:50:13;95409.72;;;4.91;93.72
20119;BME280;10220;42.716;23.306;2023-02-02T00:52:38;95350.72;;;4.75;93.72
20119;BME280;10220;42.716;23.306;2023-02-02T00:55:04;95411.63;;;4.97;93.65
20119;BME280;10220;42.716;23.306;2023-02-02T00:57:30;95399.16;;;4.86;93.76
20119;BME280;10220;42.716;23.306;2023-02-02T00:59:55;95362.13;;;4.64;95.35
20119;BME280;10220;42.716;23.306;2023-02-02T01:02:21;95310.91;;;4.33;95.37
20119;BME280;10220;42.716;23.306;2023-02-02T01:04:46;95384.91;;;4.75;96.25
20119;BME280;10220;42.716;23.306;2023-02-02T01:07:12;95383.13;;;4.76;96.61
20119;BME280;10220;42.716;23.306;2023-02-02T01:09:37;95305.44;;;4.28;96.04
20119;BME280;10220;42.716;23.306;2023-02-02T01:12:03;95384.53;;;4.86;96.09
20119;BME280;10220;42.716;23.306;2023-02-02T01:14:28;95320.63;;;4.61;95.37
20119;BME280;10220;42.716;23.306;2023-02-02T01:16:53;95362.91;;;4.89;95.61
20119;BME280;10220;42.716;23.306;2023-02-02T01:19:19;95379.72;;;4.91;97.52
20119;BME280;10220;42.716;23.306;2023-02-02T01:21:45;95357.41;;;5.00;96.61
20119;BME280;10220;42.716;23.306;2023-02-02T01:24:11;95374.97;;;4.33;100.00
20119;BME280;10220;42.716;23.306;2023-02-02T01:26:36;95367.75;;;4.12;100.00
20119;BME280;10220;42.716;23.306;2023-02-02T01:29:02;95349.00;;;3.96;100.00
20119;BME280;10220;42.716;23.306;2023-02-02T01:31:27;95320.63;;;3.74;100.00
20119;BME280;10220;42.716;23.306;2023-02-02T01:33:53;95336.38;;;4.10;100.00
20119;BME280;10220;42.716;23.306;2023-02-02T01:36:20;95375.94;;;4.48;100.00
20119;BME280;10220;42.716;23.306;2023-02-02T01:38:46;95367.13;;;4.42;100.00
20119;BME280;10220;42.716;23.306;2023-02-02T01:41:18;95361.50;;;4.31;100.00
20119;BME280;10220;42.716;23.306;2023-02-02T01:46:11;95350.44;;;3.99;100.00
20119;BME280;10220;42.716;23.306;2023-02-02T01:48:37;95323.53;;;3.87;100.00
20119;BME280;10220;42.716;23.306;2023-02-02T01:51:08;95364.22;;;4.06;100.00
20119;BME280;10220;42.716;23.306;2023-02-02T01:53:35;95292.00;;;3.86;100.00
20119;BME280;10220;42.716;23.306;2023-02-02T01:56:02;95357.00;;;4.01;100.00
20119;BME280;10220;42.716;23.306;2023-02-02T01:58:33;95334.53;;;3.71;100.00
20119;BME280;10220;42.716;23.306;2023-02-02T02:00:59;95341.00;;;4.07;100.00
20119;BME280;10220;42.716;23.306;2023-02-02T02:03:26;95351.41;;;3.90;100.00
20119;BME280;10220;42.716;23.306;2023-02-02T02:06:23;95327.84;;;3.62;100.00
20119;BME280;10220;42.716;23.306;2023-02-02T02:08:56;95275.66;;;2.98;100.00
20119;BME280;10220;42.716;23.306;2023-02-02T02:11:25;95295.81;;;2.93;100.00
20119;BME280;10220;42.716;23.306;2023-02-02T02:13:53;95330.94;;;2.91;100.00
20119;BME280;10220;42.716;23.306;2023-02-02T02:22:24;95344.63;;;2.83;100.00
20119;BME280;10220;42.716;23.306;2023-02-02T02:25:32;95348.91;;;3.07;100.00
20119;BME280;10220;42.716;23.306;2023-02-02T02:34:13;95287.03;;;2.63;100.00
20119;BME280;10220;42.716;23.306;2023-02-02T02:36:50;95348.72;;;3.01;100.00
20119;BME280;10220;42.716;23.306;2023-02-02T02:41:59;95300.88;;;2.52;100.00
20119;BME280;10220;42.716;23.306;2023-02-02T02:44:29;95333.16;;;2.87;100.00
20119;BME280;10220;42.716;23.306;2023-02-02T02:46:56;95348.75;;;2.76;100.00
20119;BME280;10220;42.716;23.306;2023-02-02T02:49:21;95327.41;;;2.59;100.00
20119;BME280;10220;42.716;23.306;2023-02-02T02:51:51;95323.75;;;2.62;100.00
20119;BME280;10220;42.716;23.306;2023-02-02T02:54:23;95336.94;;;2.75;100.00
20119;BME280;10220;42.716;23.306;2023-02-02T02:56:54;95344.88;;;2.97;100.00
20119;BME280;10220;42.716;23.306;2023-02-02T03:05:07;95334.97;;;3.02;100.00
20119;BME280;10220;42.716;23.306;2023-02-02T03:07:41;95340.44;;;3.07;100.00
20119;BME280;10220;42.716;23.306;2023-02-02T03:10:10;95322.31;;;2.92;100.00
20119;BME280;10220;42.716;23.306;2023-02-02T03:12:45;95351.19;;;3.10;100.00
20119;BME280;10220;42.716;23.306;2023-02-02T03:15:12;95347.94;;;3.00;100.00
20119;BME280;10220;42.716;23.306;2023-02-02T03:17:38;95321.59;;;3.08;100.00
20119;BME280;10220;42.716;23.306;2023-02-02T03:20:05;95336.22;;;3.31;100.00
20119;BME280;10220;42.716;23.306;2023-02-02T03:22:30;95300.97;;;2.76;100.00
20119;BME280;10220;42.716;23.306;2023-02-02T03:24:55;95333.56;;;3.07;100.00
20119;BME280;10220;42.716;23.306;2023-02-02T03:27:24;95331.81;;;3.08;100.00
20119;BME280;10220;42.716;23.306;2023-02-02T03:29:49;95329.88;;;3.02;100.00
20119;BME280;10220;42.716;23.306;2023-02-02T03:32:15;95305.34;;;2.58;100.00
20119;BME280;10220;42.716;23.306;2023-02-02T03:34:40;95351.56;;;2.90;100.00
20119;BME280;10220;42.716;23.306;2023-02-02T03:37:06;95284.31;;;2.64;100.00
20119;BME280;10220;42.716;23.306;2023-02-02T03:39:31;95268.59;;;2.51;100.00
20119;BME280;10220;42.716;23.306;2023-02-02T03:41:56;95353.28;;;2.89;100.00
20119;BME280;10220;42.716;23.306;2023-02-02T03:44:22;95272.25;;;2.49;100.00
20119;BME280;10220;42.716;23.306;2023-02-02T03:46:47;95285.91;;;2.65;100.00
20119;BME280;10220;42.716;23.306;2023-02-02T03:49:13;95276.63;;;2.64;100.00
20119;BME280;10220;42.716;23.306;2023-02-02T03:51:38;95306.59;;;2.80;100.00
20119;BME280;10220;42.716;23.306;2023-02-02T03:54:03;95354.34;;;2.79;100.00
20119;BME280;10220;42.716;23.306;2023-02-02T03:56:29;95331.88;;;2.57;100.00
20119;BME280;10220;42.716;23.306;2023-02-02T03:58:54;95333.47;;;2.58;100.00
20119;BME280;10220;42.716;23.306;2023-02-02T04:01:25;95358.53;;;2.55;100.00
20119;BME280;10220;42.716;23.306;2023-02-02T04:03:52;95296.50;;;2.20;100.00
20119;BME280;10220;42.716;23.306;2023-02-02T04:06:17;95353.91;;;2.58;100.00
20119;BME280;10220;42.716;23.306;2023-02-02T04:08:44;95338.38;;;2.52;100.00
20119;BME280;10220;42.716;23.306;2023-02-02T04:11:10;95316.75;;;2.38;100.00
20119;BME280;10220;42.716;23.306;2023-02-02T04:13:35;95324.38;;;2.56;100.00
20119;BME280;10220;42.716;23.306;2023-02-02T04:16:00;95297.03;;;2.31;100.00
20119;BME280;10220;42.716;23.306;2023-02-02T04:18:26;95362.72;;;2.56;100.00
20119;BME280;10220;42.716;23.306;2023-02-02T04:20:57;95357.19;;;2.68;100.00
20119;BME280;10220;42.716;23.306;2023-02-02T04:23:23;95358.81;;;2.52;100.00
20119;BME280;10220;42.716;23.306;2023-02-02T04:25:49;95341.66;;;2.62;100.00
20119;BME280;10220;42.716;23.306;2023-02-02T04:28:15;95363.94;;;2.52;100.00
20119;BME280;10220;42.716;23.306;2023-02-02T04:30:40;95299.00;;;2.12;100.00
20119;BME280;10220;42.716;23.306;2023-02-02T04:33:06;95297.19;;;2.04;100.00
20119;BME280;10220;42.716;23.306;2023-02-02T04:35:31;95344.91;;;2.46;100.00
20119;BME280;10220;42.716;23.306;2023-02-02T04:37:56;95341.66;;;2.36;100.00
20119;BME280;10220;42.716;23.306;2023-02-02T04:40:22;95331.63;;;2.00;100.00
20119;BME280;10220;42.716;23.306;2023-02-02T04:42:47;95372.72;;;2.07;100.00
20119;BME280;10220;42.716;23.306;2023-02-02T04:45:13;95376.84;;;2.08;100.00
20119;BME280;10220;42.716;23.306;2023-02-02T04:47:38;95366.84;;;2.14;100.00
20119;BME280;10220;42.716;23.306;2023-02-02T04:50:04;95309.91;;;1.79;100.00
20119;BME280;10220;42.716;23.306;2023-02-02T04:52:30;95270.34;;;1.40;100.00
20119;BME280;10220;42.716;23.306;2023-02-02T04:54:55;95363.22;;;1.99;100.00
20119;BME280;10220;42.716;23.306;2023-02-02T04:57:20;95372.25;;;2.29;100.00
20119;BME280;10220;42.716;23.306;2023-02-02T04:59:46;95365.69;;;1.91;100.00
20119;BME280;10220;42.716;23.306;2023-02-02T05:02:11;95352.88;;;1.83;100.00
20119;BME280;10220;42.716;23.306;2023-02-02T05:04:37;95361.69;;;1.89;100.00
20119;BME280;10220;42.716;23.306;2023-02-02T05:07:02;95392.03;;;1.92;100.00
20119;BME280;10220;42.716;23.306;2023-02-02T05:09:27;95309.53;;;1.39;100.00
20119;BME280;10220;42.716;23.306;2023-02-02T05:11:53;95371.09;;;1.88;100.00
20119;BME280;10220;42.716;23.306;2023-02-02T05:14:18;95383.56;;;2.09;100.00
20119;BME280;10220;42.716;23.306;2023-02-02T05:16:44;95296.97;;;1.80;100.00
20119;BME280;10220;42.716;23.306;2023-02-02T05:19:10;95348.31;;;2.12;100.00
20119;BME280;10220;42.716;23.306;2023-02-02T05:21:36;95336.31;;;1.87;100.00
20119;BME280;10220;42.716;23.306;2023-02-02T05:24:02;95362.22;;;1.92;100.00
20119;BME280;10220;42.716;23.306;2023-02-02T05:26:28;95356.50;;;1.98;100.00
20119;BME280;10220;42.716;23.306;2023-02-02T05:28:54;95294.97;;;1.67;100.00
20119;BME280;10220;42.716;23.306;2023-02-02T05:31:20;95330.19;;;1.63;100.00
20119;BME280;10220;42.716;23.306;2023-02-02T05:33:46;95357.91;;;1.93;100.00
20119;BME280;10220;42.716;23.306;2023-02-02T05:36:11;95372.47;;;1.66;100.00
20119;BME280;10220;42.716;23.306;2023-02-02T05:38:37;95359.72;;;1.39;100.00
20119;BME280;10220;42.716;23.306;2023-02-02T05:41:03;95370.94;;;1.73;100.00
20119;BME280;10220;42.716;23.306;2023-02-02T05:43:30;95355.63;;;1.73;100.00
20119;BME280;10220;42.716;23.306;2023-02-02T05:45:55;95352.81;;;1.75;100.00
20119;BME280;10220;42.716;23.306;2023-02-02T05:48:21;95333.25;;;1.67;100.00
20119;BME280;10220;42.716;23.306;2023-02-02T05:50:54;95390.00;;;1.95;100.00
20119;BME280;10220;42.716;23.306;2023-02-02T05:53:22;95381.00;;;2.09;100.00
20119;BME280;10220;42.716;23.306;2023-02-02T05:55:48;95402.03;;;2.03;100.00
20119;BME280;10220;42.716;23.306;2023-02-02T05:58:13;95398.66;;;2.02;100.00
20119;BME280;10220;42.716;23.306;2023-02-02T06:00:38;95381.31;;;2.06;100.00
20119;BME280;10220;42.716;23.306;2023-02-02T06:03:04;95391.28;;;2.17;100.00
20119;BME280;10220;42.716;23.306;2023-02-02T06:05:29;95382.09;;;2.06;100.00
20119;BME280;10220;42.716;23.306;2023-02-02T06:07:55;95388.81;;;2.07;100.00
20119;BME280;10220;42.716;23.306;2023-02-02T06:10:20;95341.63;;;1.76;100.00
20119;BME280;10220;42.716;23.306;2023-02-02T06:12:45;95382.47;;;2.11;100.00
20119;BME280;10220;42.716;23.306;2023-02-02T06:15:11;95371.22;;;1.70;100.00
20119;BME280;10220;42.716;23.306;2023-02-02T06:17:36;95356.78;;;1.61;100.00
20119;BME280;10220;42.716;23.306;2023-02-02T06:20:02;95338.38;;;1.22;100.00
20119;BME280;10220;42.716;23.306;2023-02-02T06:22:28;95346.41;;;1.45;100.00
20119;BME280;10220;42.716;23.306;2023-02-02T06:24:55;95415.63;;;1.59;100.00
20119;BME280;10220;42.716;23.306;2023-02-02T06:27:21;95418.25;;;1.67;100.00
20119;BME280;10220;42.716;23.306;2023-02-02T06:29:46;95422.63;;;1.57;100.00
20119;BME280;10220;42.716;23.306;2023-02-02T06:32:11;95412.38;;;1.67;100.00
20119;BME280;10220;42.716;23.306;2023-02-02T06:34:37;95382.06;;;1.37;100.00
20119;BME280;10220;42.716;23.306;2023-02-02T06:37:02;95387.06;;;1.29;100.00
20119;BME280;10220;42.716;23.306;2023-02-02T06:39:28;95342.59;;;0.78;100.00
20119;BME280;10220;42.716;23.306;2023-02-02T06:41:53;95434.63;;;1.47;100.00
20119;BME280;10220;42.716;23.306;2023-02-02T06:44:18;95340.66;;;0.89;100.00
20119;BME280;10220;42.716;23.306;2023-02-02T06:46:45;95337.91;;;1.36;100.00
20119;BME280;10220;42.716;23.306;2023-02-02T06:49:10;95431.41;;;1.72;100.00
20119;BME280;10220;42.716;23.306;2023-02-02T06:51:36;95375.34;;;1.53;100.00
20119;BME280;10220;42.716;23.306;2023-02-02T06:54:01;95420.19;;;1.82;100.00
20119;BME280;10220;42.716;23.306;2023-02-02T06:56:28;95371.91;;;1.72;100.00
20119;BME280;10220;42.716;23.306;2023-02-02T06:58:53;95424.72;;;2.06;100.00
20119;BME280;10220;42.716;23.306;2023-02-02T07:01:19;95439.59;;;2.10;100.00
20119;BME280;10220;42.716;23.306;2023-02-02T07:03:47;95442.25;;;2.18;100.00
20119;BME280;10220;42.716;23.306;2023-02-02T07:06:22;95408.00;;;1.94;100.00
20119;BME280;10220;42.716;23.306;2023-02-02T07:08:48;95356.94;;;1.76;100.00
20119;BME280;10220;42.716;23.306;2023-02-02T07:11:15;95425.44;;;2.33;100.00
20119;BME280;10220;42.716;23.306;2023-02-02T07:13:40;95385.38;;;2.33;100.00
20119;BME280;10220;42.716;23.306;2023-02-02T07:16:06;95433.91;;;2.51;100.00
20119;BME280;10220;42.716;23.306;2023-02-02T07:18:33;95426.91;;;2.78;100.00
20119;BME280;10220;42.716;23.306;2023-02-02T07:21:01;95364.00;;;2.60;100.00
20119;BME280;10220;42.716;23.306;2023-02-02T07:23:27;95427.63;;;3.13;100.00
20119;BME280;10220;42.716;23.306;2023-02-02T07:26:03;95399.13;;;3.08;100.00
20119;BME280;10220;42.716;23.306;2023-02-02T07:28:29;95404.41;;;2.82;100.00
20119;BME280;10220;42.716;23.306;2023-02-02T07:30:54;95421.25;;;2.92;100.00
20119;BME280;10220;42.716;23.306;2023-02-02T07:33:20;95457.78;;;3.27;100.00
20119;BME280;10220;42.716;23.306;2023-02-02T07:35:45;95381.81;;;3.02;100.00
20119;BME280;10220;42.716;23.306;2023-02-02T07:38:10;95366.25;;;2.88;100.00
20119;BME280;10220;42.716;23.306;2023-02-02T07:40:36;95426.72;;;3.22;100.00
20119;BME280;10220;42.716;23.306;2023-02-02T07:43:01;95437.13;;;3.29;100.00
20119;BME280;10220;42.716;23.306;2023-02-02T07:45:28;95405.13;;;3.25;100.00
20119;BME280;10220;42.716;23.306;2023-02-02T07:47:57;95435.63;;;3.51;100.00
20119;BME280;10220;42.716;23.306;2023-02-02T07:50:23;95426.28;;;3.76;100.00
20119;BME280;10220;42.716;23.306;2023-02-02T07:52:49;95376.69;;;3.77;100.00
20119;BME280;10220;42.716;23.306;2023-02-02T07:55:15;95366.47;;;4.08;100.00
20119;BME280;10220;42.716;23.306;2023-02-02T07:57:40;95418.72;;;4.39;100.00
20119;BME280;10220;42.716;23.306;2023-02-02T08:00:06;95393.25;;;4.54;100.00
20119;BME280;10220;42.716;23.306;2023-02-02T08:02:31;95308.81;;;4.05;100.00
20119;BME280;10220;42.716;23.306;2023-02-02T08:04:57;95385.50;;;4.77;100.00
20119;BME280;10220;42.716;23.306;2023-02-02T08:07:22;95388.38;;;4.90;100.00
20119;BME280;10220;42.716;23.306;2023-02-02T08:09:49;95330.31;;;4.97;100.00
20119;BME280;10220;42.716;23.306;2023-02-02T08:12:15;95347.84;;;5.32;100.00
20119;BME280;10220;42.716;23.306;2023-02-02T08:14:40;95416.31;;;5.85;100.00
20119;BME280;10220;42.716;23.306;2023-02-02T08:17:05;95318.22;;;5.82;100.00
20119;BME280;10220;42.716;23.306;2023-02-02T08:19:31;95344.75;;;6.27;98.23
20119;BME280;10220;42.716;23.306;2023-02-02T08:21:57;95356.00;;;6.26;93.45
20119;BME280;10220;42.716;23.306;2023-02-02T08:24:22;95327.19;;;6.08;92.90
20119;BME280;10220;42.716;23.306;2023-02-02T08:26:47;95337.44;;;6.53;93.33
20119;BME280;10220;42.716;23.306;2023-02-02T08:29:13;95336.09;;;6.79;90.06
20119;BME280;10220;42.716;23.306;2023-02-02T08:31:42;95369.47;;;6.87;88.64
20119;BME280;10220;42.716;23.306;2023-02-02T08:34:08;95376.25;;;7.31;87.76
20119;BME280;10220;42.716;23.306;2023-02-02T08:36:33;95364.31;;;7.59;89.64
20119;BME280;10220;42.716;23.306;2023-02-02T08:39:07;95375.91;;;7.84;83.80
20119;BME280;10220;42.716;23.306;2023-02-02T08:41:34;95341.84;;;7.53;85.08
20119;BME280;10220;42.716;23.306;2023-02-02T08:44:04;95360.16;;;7.93;82.72
20119;BME280;10220;42.716;23.306;2023-02-02T08:46:30;95356.22;;;7.48;82.48
20119;BME280;10220;42.716;23.306;2023-02-02T08:48:55;95363.31;;;7.74;82.86
20119;BME280;10220;42.716;23.306;2023-02-02T08:51:21;95293.59;;;7.47;85.50
20119;BME280;10220;42.716;23.306;2023-02-02T08:53:46;95343.97;;;7.64;80.70
20119;BME280;10220;42.716;23.306;2023-02-02T08:56:13;95340.75;;;7.97;80.08
20119;BME280;10220;42.716;23.306;2023-02-02T08:58:38;95334.59;;;8.33;77.56
20119;BME280;10220;42.716;23.306;2023-02-02T09:01:09;95338.44;;;8.44;73.33
20119;BME280;10220;42.716;23.306;2023-02-02T09:03:35;95347.06;;;8.51;73.90
20119;BME280;10220;42.716;23.306;2023-02-02T09:06:05;95356.16;;;8.68;69.67
20119;BME280;10220;42.716;23.306;2023-02-02T09:08:31;95324.53;;;8.93;67.79
20119;BME280;10220;42.716;23.306;2023-02-02T09:11:08;95304.56;;;9.08;64.49
20119;BME280;10220;42.716;23.306;2023-02-02T09:13:35;95339.47;;;9.25;62.36
20119;BME280;10220;42.716;23.306;2023-02-02T09:16:02;95339.59;;;8.83;62.09
20119;BME280;10220;42.716;23.306;2023-02-02T09:18:28;95298.97;;;8.71;63.38
20119;BME280;10220;42.716;23.306;2023-02-02T09:20:53;95264.97;;;8.40;64.30
20119;BME280;10220;42.716;23.306;2023-02-02T09:23:19;95325.47;;;8.58;64.95
20119;BME280;10220;42.716;23.306;2023-02-02T09:25:45;95275.63;;;8.30;65.49
20119;BME280;10220;42.716;23.306;2023-02-02T09:28:11;95324.41;;;8.74;66.69
20119;BME280;10220;42.716;23.306;2023-02-02T09:30:36;95316.50;;;8.81;64.91
20119;BME280;10220;42.716;23.306;2023-02-02T09:33:02;95327.06;;;8.86;64.16
20119;BME280;10220;42.716;23.306;2023-02-02T09:35:28;95266.03;;;8.73;64.25
20119;BME280;10220;42.716;23.306;2023-02-02T09:37:53;95269.84;;;9.17;62.76
20119;BME280;10220;42.716;23.306;2023-02-02T09:40:19;95251.28;;;9.00;62.33
20119;BME280;10220;42.716;23.306;2023-02-02T09:45:53;95305.56;;;9.07;61.87
20119;BME280;10220;42.716;23.306;2023-02-02T09:51:20;95242.66;;;9.27;62.46
20119;BME280;10220;42.716;23.306;2023-02-02T09:53:58;95276.16;;;9.54;61.10
20119;BME280;10220;42.716;23.306;2023-02-02T09:56:39;95250.31;;;9.61;60.18
20119;BME280;10220;42.716;23.306;2023-02-02T09:59:12;95291.34;;;9.70;60.27
20119;BME280;10220;42.716;23.306;2023-02-02T10:01:41;95303.28;;;9.25;61.07
20119;BME280;10220;42.716;23.306;2023-02-02T10:04:13;95281.47;;;9.40;63.36
20119;BME280;10220;42.716;23.306;2023-02-02T10:06:51;95280.84;;;9.91;61.13
20119;BME280;10220;42.716;23.306;2023-02-02T10:12:20;95268.44;;;9.14;60.87
20119;BME280;10220;42.716;23.306;2023-02-02T10:19:49;95212.78;;;9.12;61.04
20119;BME280;10220;42.716;23.306;2023-02-02T10:22:23;95247.50;;;9.43;60.94
20119;BME280;10220;42.716;23.306;2023-02-02T10:24:51;95223.13;;;9.12;60.38
20119;BME280;10220;42.716;23.306;2023-02-02T10:27:25;95205.81;;;9.12;60.06
20119;BME280;10220;42.716;23.306;2023-02-02T10:29:59;95254.34;;;9.23;60.16
20119;BME280;10220;42.716;23.306;2023-02-02T10:32:27;95259.44;;;9.44;60.54
20119;BME280;10220;42.716;23.306;2023-02-02T10:37:37;95222.56;;;10.01;57.18
20119;BME280;10220;42.716;23.306;2023-02-02T10:40:31;95219.78;;;10.03;55.91
20119;BME280;10220;42.716;23.306;2023-02-02T10:46:19;95149.28;;;9.94;55.27
20119;BME280;10220;42.716;23.306;2023-02-02T10:48:47;95189.63;;;9.37;56.81
20119;BME280;10220;42.716;23.306;2023-02-02T10:51:25;95159.66;;;9.75;56.62
20119;BME280;10220;42.716;23.306;2023-02-02T10:53:56;95156.69;;;10.10;56.34
20119;BME280;10220;42.716;23.306;2023-02-02T10:56:29;95148.25;;;9.57;55.14
20119;BME280;10220;42.716;23.306;2023-02-02T10:59:00;95164.81;;;9.69;57.25
20119;BME280;10220;42.716;23.306;2023-02-02T11:01:28;95131.38;;;9.80;56.21
20119;BME280;10220;42.716;23.306;2023-02-02T11:03:54;95145.69;;;9.89;55.79
20119;BME280;10220;42.716;23.306;2023-02-02T11:06:38;95146.72;;;9.75;55.91
20119;BME280;10220;42.716;23.306;2023-02-02T11:09:20;95126.22;;;10.19;56.89
20119;BME280;10220;42.716;23.306;2023-02-02T11:11:50;95149.91;;;10.92;54.67
20119;BME280;10220;42.716;23.306;2023-02-02T11:17:02;95147.09;;;10.30;54.08
20119;BME280;10220;42.716;23.306;2023-02-02T11:19:29;95170.06;;;10.90;53.81
20119;BME280;10220;42.716;23.306;2023-02-02T11:21:58;95163.66;;;10.99;54.42
20119;BME280;10220;42.716;23.306;2023-02-02T11:24:44;95142.88;;;11.12;52.41
20119;BME280;10220;42.716;23.306;2023-02-02T11:27:20;95137.81;;;11.23;53.04
20119;BME280;10220;42.716;23.306;2023-02-02T11:29:51;95115.53;;;10.65;51.84
20119;BME280;10220;42.716;23.306;2023-02-02T11:32:30;95147.13;;;10.24;53.45
20119;BME280;10220;42.716;23.306;2023-02-02T11:37:35;95127.97;;;10.44;53.14
20119;BME280;10220;42.716;23.306;2023-02-02T11:40:25;95132.19;;;10.89;53.38
20119;BME280;10220;42.716;23.306;2023-02-02T11:42:53;95127.16;;;11.00;52.99
20119;BME280;10220;42.716;23.306;2023-02-02T11:45:31;95073.16;;;10.47;52.62
20119;BME280;10220;42.716;23.306;2023-02-02T11:48:01;95138.94;;;10.27;53.82
20119;BME280;10220;42.716;23.306;2023-02-02T11:50:27;95130.41;;;10.07;52.93
20119;BME280;10220;42.716;23.306;2023-02-02T11:52:53;95136.97;;;10.16;54.99
20119;BME280;10220;42.716;23.306;2023-02-02T11:55:25;95070.09;;;10.13;54.59
20119;BME280;10220;42.716;23.306;2023-02-02T11:58:23;95109.34;;;10.73;54.67
20119;BME280;10220;42.716;23.306;2023-02-02T12:00:55;95065.41;;;10.41;53.96
20119;BME280;10220;42.716;23.306;2023-02-02T12:03:27;95095.47;;;10.54;55.03
20119;BME280;10220;42.716;23.306;2023-02-02T12:05:53;95119.28;;;10.76;53.96
20119;BME280;10220;42.716;23.306;2023-02-02T12:08:19;95043.34;;;10.32;53.05
20119;BME280;10220;42.716;23.306;2023-02-02T12:10:56;95111.09;;;10.79;51.96
20119;BME280;10220;42.716;23.306;2023-02-02T12:16:36;95093.88;;;10.47;50.60
20119;BME280;10220;42.716;23.306;2023-02-02T12:19:28;95099.75;;;10.17;51.31
20119;BME280;10220;42.716;23.306;2023-02-02T12:22:19;95084.44;;;10.02;52.25
20119;BME280;10220;42.716;23.306;2023-02-02T12:24:58;95106.91;;;10.08;51.41
20119;BME280;10220;42.716;23.306;2023-02-02T12:30:25;95114.06;;;9.93;50.75
20119;BME280;10220;42.716;23.306;2023-02-02T12:43:44;95119.44;;;9.86;51.97
20119;BME280;10220;42.716;23.306;2023-02-02T13:05:32;95088.22;;;9.55;51.65
20119;BME280;10220;42.716;23.306;2023-02-02T13:08:09;95097.75;;;9.35;51.42
20119;BME280;10220;42.716;23.306;2023-02-02T13:10:46;95105.09;;;9.44;51.56
20119;BME280;10220;42.716;23.306;2023-02-02T13:13:19;95052.53;;;8.92;51.53
20119;BME280;10220;42.716;23.306;2023-02-02T13:15:52;95092.13;;;9.12;51.87
20119;BME280;10220;42.716;23.306;2023-02-02T13:18:31;95074.81;;;9.13;52.14
20119;BME280;10220;42.716;23.306;2023-02-02T13:21:05;95113.44;;;9.27;51.44
20119;BME280;10220;42.716;23.306;2023-02-02T13:23:35;95095.75;;;9.37;52.54
20119;BME280;10220;42.716;23.306;2023-02-02T13:26:11;95089.59;;;9.38;53.63
20119;BME280;10220;42.716;23.306;2023-02-02T13:28:57;95071.47;;;9.32;54.39
20119;BME280;10220;42.716;23.306;2023-02-02T13:36:58;95075.69;;;9.58;51.22
20119;BME280;10220;42.716;23.306;2023-02-02T13:39:36;95075.47;;;9.28;50.84
20119;BME280;10220;42.716;23.306;2023-02-02T13:42:04;95097.34;;;9.32;51.88
20119;BME280;10220;42.716;23.306;2023-02-02T13:44:45;95099.13;;;9.31;52.69
20119;BME280;10220;42.716;23.306;2023-02-02T13:47:35;95078.97;;;8.94;53.70
20119;BME280;10220;42.716;23.306;2023-02-02T13:50:08;95080.94;;;8.86;54.66
20119;BME280;10220;42.716;23.306;2023-02-02T13:53:03;95091.78;;;8.69;54.81
20119;BME280;10220;42.716;23.306;2023-02-02T13:58:21;95092.03;;;8.80;56.37
20119;BME280;10220;42.716;23.306;2023-02-02T14:00:55;95104.97;;;8.86;56.96
20119;BME280;10220;42.716;23.306;2023-02-02T14:03:41;95048.38;;;8.38;59.48
20119;BME280;10220;42.716;23.306;2023-02-02T14:06:17;95100.50;;;8.61;67.22
20119;BME280;10220;42.716;23.306;2023-02-02T14:11:39;95062.38;;;8.17;76.17
20119;BME280;10220;42.716;23.306;2023-02-02T14:19:54;95102.22;;;8.48;79.90
20119;BME280;10220;42.716;23.306;2023-02-02T14:22:40;95090.84;;;8.36;78.05
20119;BME280;10220;42.716;23.306;2023-02-02T14:27:57;95155.09;;;7.76;95.97
20119;BME280;10220;42.716;23.306;2023-02-02T14:30:27;95161.97;;;6.57;100.00
20119;BME280;10220;42.716;23.306;2023-02-02T14:38:12;95163.75;;;6.28;100.00
20119;BME280;10220;42.716;23.306;2023-02-02T14:41:21;95179.63;;;6.17;100.00
20119;BME280;10220;42.716;23.306;2023-02-02T14:44:10;95134.19;;;5.81;100.00
20119;BME280;10220;42.716;23.306;2023-02-02T14:46:39;95230.78;;;6.41;100.00
20119;BME280;10220;42.716;23.306;2023-02-02T14:49:14;95229.72;;;6.21;100.00
20119;BME280;10220;42.716;23.306;2023-02-02T14:51:47;95243.53;;;5.83;100.00